LiveATC.Net - Listen to live air traffic control over the Internet!


ICAO: WSSL  IATA: XSP   Airport: Seletar Airport
City: Singapore
Country: Singapore   Continent: Asia
WSSL METAR Weather: WSSL 260600Z 04004KT 9999 -SHRA FEW015 FEW018TCU BKN160 27/25 Q1010 RETS RMK 0530Z Q1010
WSSL Flight Activity (FlightAware)
WSSL Tower
Feed Status: DOWN
Last heard on: 2016-06-19 12:23:03 (6 days 17 hours 56 minutes ago)
WSSL Tower Audio Archives
FacilityFrequency
Seletar Tower118.450


NOTICE

Unauthorized use prohibited. See LiveATC.net Terms of Service


Find LiveATC Audio Streams


Airport/ARTCC Code

Frequency
(e.g., 124.400, 128.75)
Site-wide search

Browse LiveATC Feeds
LiveATC Coverage Map
Top 50 LiveATC Feeds
Bad Weather Areas

LiveATC FAQ
Offer a LiveATC Feed
Contact LiveATC.net
Press Inquiries

LiveATC on iPhone
LiveATC on Android

Windows Phone
Windows 8/10

LiveATC Mobile
(Mobile browser)

ATC Audio Archives
Interesting Recordings

LiveATC Forums


Home Page
About LiveATC.net
Make a Donation
LiveATC Store

Terms of Use
Privacy Policy

Canadian Air Freqs

AIRMETs/SIGMETs

FAA Airport Status
Nat'l Airspace Status
Arrival Demand Charts


Server Software By:
Icecast.org
Liquidsoap